Time;durP1;ratioP1;P1;durP2;ratioP2;P2;SDS_P1;SDS_P2;PMS_P1;PMS_P2;Temp;Humidity;BMP_temperature;BMP_pressure;BME280_temperature;BME280_humidity;BME280_pressure;Samples;Min_cycle;Max_cycle;Signal;HPM_P1;HPM_P2
2023/07/02 00:00:01;;;;;;;13.10;11.70;;;22.30;59.20;;;;;;6113828;23;114589;-78
2023/07/02 00:02:36;;;;;;;15.65;14.02;;;22.30;59.00;;;;;;6113437;23;114137;-78
2023/07/02 00:05:05;;;;;;;13.02;11.35;;;22.20;59.70;;;;;;6114649;23;114326;-78
2023/07/02 00:07:34;;;;;;;16.08;14.38;;;22.30;59.20;;;;;;6111698;22;114557;-78
2023/07/02 00:10:01;;;;;;;15.15;13.55;;;22.20;59.40;;;;;;6113342;22;115752;-80
2023/07/02 00:12:29;;;;;;;15.77;13.05;;;22.20;59.40;;;;;;6114832;22;113972;-78
2023/07/02 00:14:56;;;;;;;13.73;11.50;;;22.20;59.30;;;;;;6112959;23;115705;-78
2023/07/02 00:17:25;;;;;;;14.80;12.15;;;22.10;59.30;;;;;;6087396;23;116974;-78
2023/07/02 00:19:52;;;;;;;14.38;12.30;;;22.10;59.60;;;;;;6112905;23;114639;-78
2023/07/02 00:22:20;;;;;;;15.32;13.73;;;22.10;59.40;;;;;;6112418;23;114489;-79
2023/07/02 00:24:47;;;;;;;13.75;10.82;;;22.10;59.70;;;;;;6113392;23;114010;-79
2023/07/02 00:27:14;;;;;;;12.95;11.57;;;22.10;59.20;;;;;;6112886;23;117096;-79
2023/07/02 00:29:41;;;;;;;13.75;11.98;;;22.20;59.20;;;;;;6111162;22;114708;-79
2023/07/02 00:32:08;;;;;;;12.55;11.10;;;22.20;59.30;;;;;;6111524;23;114221;-79
2023/07/02 00:34:35;;;;;;;12.75;10.70;;;22.30;59.10;;;;;;6112347;23;114398;-77
2023/07/02 00:37:02;;;;;;;15.75;12.73;;;22.20;59.00;;;;;;6113230;23;114861;-78
2023/07/02 00:39:30;;;;;;;12.73;11.32;;;22.30;59.20;;;;;;6112850;23;114515;-77
2023/07/02 00:42:04;;;;;;;13.00;10.65;;;22.20;59.00;;;;;;6114213;22;114096;-77
2023/07/02 00:44:32;;;;;;;13.27;11.48;;;22.30;58.90;;;;;;6114224;22;114332;-77
2023/07/02 00:46:59;;;;;;;13.05;11.38;;;22.30;58.80;;;;;;6136236;22;115005;-77
2023/07/02 00:49:26;;;;;;;16.77;13.68;;;22.30;58.60;;;;;;6113070;23;114534;-78
2023/07/02 00:51:54;;;;;;;18.90;14.10;;;22.40;58.80;;;;;;6088925;23;114025;-77
2023/07/02 00:54:21;;;;;;;15.00;12.60;;;22.40;58.70;;;;;;6138671;22;114369;-79
2023/07/02 00:56:48;;;;;;;13.60;12.05;;;22.40;58.50;;;;;;6137224;22;115073;-79
2023/07/02 00:59:15;;;;;;;13.57;10.73;;;22.40;58.40;;;;;;6114060;23;114609;-79
2023/07/02 01:01:42;;;;;;;14.85;13.05;;;22.50;58.20;;;;;;6115329;23;114121;-78
2023/07/02 01:04:12;;;;;;;12.88;10.90;;;22.50;58.30;;;;;;6115398;23;114942;-79
2023/07/02 01:06:40;;;;;;;14.25;11.82;;;22.50;58.00;;;;;;6114117;23;115329;-79
2023/07/02 01:09:08;;;;;;;11.70;10.45;;;22.50;58.00;;;;;;6112840;23;115138;-79
2023/07/02 01:11:40;;;;;;;15.02;11.73;;;22.50;57.90;;;;;;6113391;23;114350;-79
2023/07/02 01:14:16;;;;;;;15.75;11.98;;;22.60;57.80;;;;;;6114451;23;114051;-79
2023/07/02 01:16:43;;;;;;;12.90;10.95;;;22.70;57.70;;;;;;6113822;23;115160;-78
2023/07/02 01:19:13;;;;;;;12.15;10.82;;;22.60;57.70;;;;;;6112513;23;114587;-77
2023/07/02 01:21:40;;;;;;;13.63;11.20;;;22.60;57.70;;;;;;6088133;23;114067;-79
2023/07/02 01:24:07;;;;;;;14.45;11.20;;;22.50;57.70;;;;;;6114699;23;114216;-78
2023/07/02 01:26:36;;;;;;;12.05;10.55;;;22.50;57.70;;;;;;6112312;23;115240;-78
2023/07/02 01:29:16;;;;;;;12.93;10.55;;;22.50;57.70;;;;;;6112915;22;114580;-78
2023/07/02 01:31:43;;;;;;;14.13;12.43;;;22.60;57.40;;;;;;6114934;22;114032;-79
2023/07/02 01:34:11;;;;;;;14.27;11.40;;;22.50;57.80;;;;;;6114683;22;114254;-79
2023/07/02 01:36:38;;;;;;;15.18;12.10;;;22.30;58.10;;;;;;6087283;23;117760;-79
2023/07/02 01:39:06;;;;;;;14.48;11.02;;;22.10;58.70;;;;;;6113042;22;114583;-79
2023/07/02 01:41:48;;;;;;;12.35;10.70;;;21.90;58.90;;;;;;6114547;23;114103;-79
2023/07/02 01:44:16;;;;;;;13.05;10.55;;;21.90;59.00;;;;;;6114525;22;114295;-79
2023/07/02 01:46:44;;;;;;;14.93;11.80;;;21.80;59.30;;;;;;6086949;23;114940;-79
2023/07/02 01:49:11;;;;;;;12.82;11.40;;;21.80;59.50;;;;;;6112340;23;115522;-79
2023/07/02 01:51:38;;;;;;;14.65;12.00;;;21.90;59.30;;;;;;6138190;22;114247;-79
2023/07/02 01:54:06;;;;;;;11.95;10.30;;;21.80;59.40;;;;;;6114518;23;113911;-79
2023/07/02 01:56:33;;;;;;;15.15;12.52;;;21.80;59.40;;;;;;6111642;23;118395;-78
2023/07/02 01:59:00;;;;;;;15.73;12.75;;;21.80;59.60;;;;;;6112580;22;114559;-78
2023/07/02 02:01:27;;;;;;;13.25;11.18;;;21.60;59.80;;;;;;6114506;23;114283;-78
2023/07/02 02:03:55;;;;;;;12.60;9.82;;;21.30;60.50;;;;;;6114879;23;114325;-79
2023/07/02 02:06:22;;;;;;;15.90;13.38;;;21.30;60.60;;;;;;6113310;22;116695;-79
2023/07/02 02:08:49;;;;;;;15.07;11.95;;;21.40;60.70;;;;;;6112120;23;115951;-79
2023/07/02 02:11:16;;;;;;;11.70;10.13;;;21.40;60.60;;;;;;6113575;23;114158;-79
2023/07/02 02:13:43;;;;;;;11.27;9.65;;;21.40;60.40;;;;;;6138143;22;114131;-78
2023/07/02 02:16:10;;;;;;;13.63;11.60;;;21.50;60.20;;;;;;6087135;23;115406;-78
2023/07/02 02:18:38;;;;;;;14.02;11.85;;;21.60;60.10;;;;;;6111916;23;115197;-78
2023/07/02 02:21:05;;;;;;;15.75;12.27;;;21.70;59.80;;;;;;6112578;23;114137;-78
2023/07/02 02:23:33;;;;;;;12.15;10.07;;;21.80;59.70;;;;;;6137437;22;114334;-79
2023/07/02 02:26:00;;;;;;;13.30;10.63;;;21.80;59.50;;;;;;6113065;23;115448;-79
2023/07/02 02:28:28;;;;;;;15.95;11.70;;;21.90;59.20;;;;;;6137246;22;114623;-79
2023/07/02 02:30:55;;;;;;;11.90;10.05;;;22.00;59.10;;;;;;6113549;22;114469;-79
2023/07/02 02:33:22;;;;;;;12.82;10.10;;;22.00;58.90;;;;;;6112925;23;114612;-79
2023/07/02 02:35:50;;;;;;;11.55;10.32;;;22.10;58.70;;;;;;6136341;22;114819;-78
2023/07/02 02:38:17;;;;;;;12.13;10.43;;;22.20;58.50;;;;;;6113881;22;114458;-78
2023/07/02 02:40:45;;;;;;;11.73;10.13;;;22.20;58.40;;;;;;6113626;22;114358;-77
2023/07/02 02:43:17;;;;;;;10.98;9.18;;;22.20;58.20;;;;;;6138297;22;114287;-78
2023/07/02 02:45:45;;;;;;;11.25;10.02;;;22.30;58.20;;;;;;6137339;22;114754;-78
2023/07/02 02:48:12;;;;;;;12.85;10.75;;;22.10;58.20;;;;;;6114080;23;114599;-78
2023/07/02 02:50:41;;;;;;;14.35;12.48;;;22.10;58.20;;;;;;6138432;22;114534;-78
2023/07/02 02:53:08;;;;;;;14.75;11.52;;;22.00;58.10;;;;;;6115445;23;114228;-77
2023/07/02 02:55:36;;;;;;;12.40;10.43;;;21.90;58.30;;;;;;6112427;23;117162;-77
2023/07/02 02:58:04;;;;;;;15.45;11.70;;;21.80;58.70;;;;;;6112554;23;114812;-78
2023/07/02 03:00:31;;;;;;;14.10;10.98;;;21.70;58.90;;;;;;6114106;23;114018;-78
2023/07/02 03:02:59;;;;;;;16.58;11.70;;;21.60;59.00;;;;;;6137940;22;114098;-78
2023/07/02 03:05:26;;;;;;;16.30;12.13;;;21.70;58.90;;;;;;6112264;23;117034;-78
2023/07/02 03:07:53;;;;;;;15.63;11.98;;;21.70;58.60;;;;;;6113324;23;114483;-78
2023/07/02 03:10:21;;;;;;;12.13;9.88;;;21.50;59.10;;;;;;6113339;23;114193;-78
2023/07/02 03:12:48;;;;;;;13.48;10.23;;;21.50;59.30;;;;;;6088669;23;114135;-78
2023/07/02 03:15:17;;;;;;;13.90;11.15;;;21.60;59.40;;;;;;6111189;23;114812;-79
2023/07/02 03:17:44;;;;;;;13.25;10.05;;;21.80;59.00;;;;;;6114185;23;116683;-79
2023/07/02 03:20:11;;;;;;;13.60;10.63;;;22.00;58.70;;;;;;6114613;22;114157;-79
2023/07/02 03:22:39;;;;;;;13.23;9.85;;;22.30;58.20;;;;;;6114636;23;114559;-79
2023/07/02 03:25:06;;;;;;;14.18;10.27;;;22.50;57.60;;;;;;6113401;23;114912;-79
2023/07/02 03:27:33;;;;;;;13.88;10.82;;;22.80;57.00;;;;;;6113689;22;115672;-79
2023/07/02 03:30:01;;;;;;;13.38;10.07;;;23.00;56.40;;;;;;6114593;22;114450;-80
2023/07/02 03:32:29;;;;;;;12.45;9.88;;;23.30;55.80;;;;;;6114591;23;114116;-79
2023/07/02 03:34:56;;;;;;;15.57;11.82;;;23.40;55.30;;;;;;6113544;22;116563;-79
2023/07/02 03:37:24;;;;;;;14.70;10.68;;;23.60;54.90;;;;;;6113538;23;114704;-79
2023/07/02 03:39:51;;;;;;;13.77;10.25;;;23.80;54.30;;;;;;6114765;23;114243;-79
2023/07/02 03:42:18;;;;;;;12.65;9.25;;;23.90;53.90;;;;;;6114906;23;114085;-79
2023/07/02 03:44:45;;;;;;;24.35;14.10;;;24.10;53.50;;;;;;6111932;23;117300;-79
2023/07/02 03:47:15;;;;;;;14.63;10.70;;;24.10;53.10;;;;;;6111778;23;117313;-79
2023/07/02 03:49:43;;;;;;;14.70;10.07;;;24.00;53.10;;;;;;6112591;23;114212;-79
2023/07/02 03:52:10;;;;;;;15.05;10.48;;;23.90;53.30;;;;;;6088430;23;114100;-79
2023/07/02 03:54:39;;;;;;;21.42;14.20;;;23.90;53.40;;;;;;6135998;22;114726;-77
2023/07/02 03:57:06;;;;;;;18.20;12.35;;;23.70;53.30;;;;;;6113260;23;114596;-79
2023/07/02 03:59:34;;;;;;;14.38;10.43;;;23.40;53.80;;;;;;6114500;23;114122;-77
2023/07/02 04:02:01;;;;;;;15.43;10.48;;;23.30;54.40;;;;;;6113095;23;114451;-78
2023/07/02 04:04:28;;;;;;;13.10;10.63;;;23.20;54.60;;;;;;6136833;22;114857;-78
2023/07/02 04:06:56;;;;;;;14.73;11.45;;;23.10;54.70;;;;;;6113425;23;115735;-78
2023/07/02 04:09:23;;;;;;;13.30;10.52;;;23.20;54.80;;;;;;6112892;23;114205;-78
2023/07/02 04:11:50;;;;;;;20.05;13.98;;;23.20;54.80;;;;;;6138241;22;114078;-78
2023/07/02 04:14:17;;;;;;;16.73;12.18;;;23.10;54.90;;;;;;6112679;23;114852;-78
2023/07/02 04:16:44;;;;;;;16.45;10.63;;;23.10;55.00;;;;;;6112848;23;115586;-79
2023/07/02 04:19:11;;;;;;;14.73;10.75;;;23.10;55.00;;;;;;6113883;23;114482;-79
2023/07/02 04:21:39;;;;;;;15.02;10.90;;;23.20;54.90;;;;;;6088353;23;114381;-79
2023/07/02 04:24:06;;;;;;;22.52;15.77;;;23.20;54.90;;;;;;6112854;23;115092;-79
2023/07/02 04:26:34;;;;;;;20.13;14.75;;;23.30;54.90;;;;;;6112398;23;115029;-79
2023/07/02 04:29:21;;;;;;;17.63;12.95;;;23.30;54.90;;;;;;6112216;23;114234;-79
2023/07/02 04:31:48;;;;;;;28.33;22.17;;;23.30;54.70;;;;;;6114451;22;114145;-79
2023/07/02 04:34:15;;;;;;;30.27;21.73;;;23.40;54.60;;;;;;6112093;22;114798;-79
2023/07/02 04:36:43;;;;;;;23.02;16.85;;;23.40;54.60;;;;;;6135313;22;116417;-79
2023/07/02 04:39:10;;;;;;;25.23;19.02;;;23.40;54.40;;;;;;6111915;23;114068;-78
2023/07/02 04:41:37;;;;;;;34.03;25.35;;;23.40;54.40;;;;;;6113779;22;114077;-79
2023/07/02 04:44:04;;;;;;;25.73;19.02;;;23.30;54.40;;;;;;6111030;23;115096;-78
2023/07/02 04:46:32;;;;;;;35.65;27.40;;;23.30;54.60;;;;;;6112625;23;114521;-79
2023/07/02 04:48:59;;;;;;;31.05;25.65;;;23.40;54.50;;;;;;6112802;22;114284;-79
2023/07/02 04:51:26;;;;;;;46.45;37.47;;;23.60;54.40;;;;;;6112276;23;114155;-79
2023/07/02 04:53:54;;;;;;;48.08;38.38;;;23.60;54.00;;;;;;6111061;23;114890;-79
2023/07/02 04:56:21;;;;;;;60.30;44.90;;;23.60;54.00;;;;;;6112743;23;114806;-78
2023/07/02 04:58:48;;;;;;;55.97;43.70;;;23.60;54.30;;;;;;6112326;23;114201;-79
2023/07/02 05:01:15;;;;;;;53.50;40.22;;;23.70;54.50;;;;;;6113312;23;114479;-78
2023/07/02 05:03:42;;;;;;;49.78;40.25;;;23.80;54.00;;;;;;6085778;23;115973;-78
2023/07/02 05:06:09;;;;;;;41.90;33.67;;;24.00;53.50;;;;;;6112230;22;115898;-78
2023/07/02 05:08:36;;;;;;;32.30;27.92;;;24.10;53.00;;;;;;6113288;23;114190;-79
2023/07/02 05:11:03;;;;;;;33.50;26.02;;;24.20;52.00;;;;;;6113619;23;114259;-78
2023/07/02 05:13:31;;;;;;;32.80;25.65;;;24.20;51.50;;;;;;6112237;23;115458;-78
2023/07/02 05:15:58;;;;;;;25.38;22.17;;;24.20;51.70;;;;;;6110675;23;114711;-79
2023/07/02 05:18:28;;;;;;;23.13;18.48;;;24.10;51.80;;;;;;6112964;23;114143;-79
2023/07/02 05:20:55;;;;;;;22.92;19.20;;;24.00;51.50;;;;;;6113456;23;114200;-79
2023/07/02 05:23:22;;;;;;;21.75;15.98;;;24.00;52.10;;;;;;6111206;22;114915;-78
2023/07/02 05:25:50;;;;;;;18.40;14.40;;;24.00;51.70;;;;;;6135769;22;114680;-79
2023/07/02 05:28:17;;;;;;;18.08;15.00;;;23.90;51.20;;;;;;6111270;23;114298;-79
2023/07/02 05:30:44;;;;;;;16.05;13.80;;;23.80;51.10;;;;;;6113321;23;114086;-78
2023/07/02 05:33:12;;;;;;;16.90;12.88;;;23.80;51.10;;;;;;6110559;23;118299;-78
2023/07/02 05:35:39;;;;;;;15.77;13.23;;;23.70;51.10;;;;;;6136182;22;114589;-78
2023/07/02 05:38:06;;;;;;;16.42;13.68;;;23.70;51.60;;;;;;6113045;23;114291;-77
2023/07/02 05:40:33;;;;;;;19.45;16.02;;;23.70;52.00;;;;;;6113794;23;114193;-78
2023/07/02 05:43:00;;;;;;;14.00;10.80;;;23.80;52.20;;;;;;6113864;23;116461;-78
2023/07/02 05:45:28;;;;;;;10.63;8.48;;;23.70;51.40;;;;;;6113984;23;117035;-78
2023/07/02 05:47:56;;;;;;;11.90;10.05;;;23.80;50.30;;;;;;6115400;23;114034;-78
2023/07/02 05:50:23;;;;;;;11.13;9.00;;;23.80;51.10;;;;;;6113603;23;114259;-78
2023/07/02 05:52:50;;;;;;;6.18;5.20;;;23.80;50.10;;;;;;6113362;23;115428;-79
2023/07/02 05:55:18;;;;;;;10.70;8.18;;;23.90;49.80;;;;;;6112327;23;114871;-78
2023/07/02 05:57:46;;;;;;;12.02;7.78;;;24.00;49.70;;;;;;6114476;23;114154;-79
2023/07/02 06:00:13;;;;;;;6.97;6.03;;;24.10;48.90;;;;;;6114678;23;114301;-79
2023/07/02 06:02:40;;;;;;;6.47;4.63;;;24.30;48.30;;;;;;6113503;23;114861;-79
2023/07/02 06:05:08;;;;;;;6.32;4.40;;;24.40;47.30;;;;;;6113231;23;114600;-79
2023/07/02 06:07:35;;;;;;;7.90;5.25;;;24.50;46.10;;;;;;6112916;23;114136;-79
2023/07/02 06:10:06;;;;;;;9.85;7.13;;;24.60;46.70;;;;;;6114919;23;114198;-78
2023/07/02 06:12:33;;;;;;;9.02;4.82;;;24.60;46.90;;;;;;6113191;22;116915;-79
2023/07/02 06:15:00;;;;;;;8.15;4.75;;;24.80;46.20;;;;;;6113557;23;115288;-79
2023/07/02 06:17:30;;;;;;;9.15;6.70;;;24.90;46.20;;;;;;6112582;23;114489;-78
2023/07/02 06:19:59;;;;;;;11.20;8.30;;;25.10;44.90;;;;;;6115057;23;114267;-79
2023/07/02 06:22:26;;;;;;;7.00;5.28;;;25.10;45.90;;;;;;6113039;23;115390;-78
2023/07/02 06:24:54;;;;;;;10.70;7.55;;;25.10;44.90;;;;;;6111853;23;114512;-79
2023/07/02 06:27:22;;;;;;;7.53;5.78;;;25.00;45.40;;;;;;6114542;23;114220;-79
2023/07/02 06:29:52;;;;;;;8.98;6.75;;;24.90;44.70;;;;;;6114740;23;114512;-79
2023/07/02 06:32:19;;;;;;;7.40;4.75;;;24.70;45.10;;;;;;6113176;23;114839;-78
2023/07/02 06:34:46;;;;;;;9.23;7.30;;;24.60;44.70;;;;;;6114247;23;114550;-78
2023/07/02 06:37:13;;;;;;;9.48;7.72;;;24.40;46.40;;;;;;6114163;22;114902;-78
2023/07/02 06:39:40;;;;;;;9.68;7.35;;;24.30;47.20;;;;;;6114531;23;114166;-79
2023/07/02 06:42:08;;;;;;;6.95;4.85;;;24.30;47.50;;;;;;6136452;22;115130;-79
2023/07/02 06:44:38;;;;;;;6.72;5.10;;;24.30;46.60;;;;;;6111404;23;118253;-79
2023/07/02 06:47:05;;;;;;;7.55;5.38;;;24.20;46.70;;;;;;6114511;23;114134;-79
2023/07/02 06:49:34;;;;;;;9.38;7.93;;;24.20;47.10;;;;;;6114293;23;114273;-79
2023/07/02 06:52:01;;;;;;;7.97;5.57;;;24.20;47.60;;;;;;6136440;22;114800;-79
2023/07/02 06:54:28;;;;;;;9.95;8.23;;;24.10;46.70;;;;;;6113073;23;114618;-79
2023/07/02 06:56:58;;;;;;;7.38;6.03;;;24.00;48.00;;;;;;6112272;23;114441;-79
2023/07/02 06:59:26;;;;;;;7.13;5.22;;;23.90;47.60;;;;;;6114597;23;114267;-79
2023/07/02 07:01:53;;;;;;;6.82;5.35;;;23.80;47.00;;;;;;6111513;23;114933;-77
2023/07/02 07:04:24;;;;;;;6.50;4.97;;;23.80;47.40;;;;;;6112555;22;116332;-79
2023/07/02 07:06:55;;;;;;;7.93;5.88;;;23.80;46.80;;;;;;6113494;23;113944;-79
2023/07/02 07:09:22;;;;;;;9.20;6.53;;;23.70;47.30;;;;;;6113902;22;114021;-79
2023/07/02 07:11:52;;;;;;;7.43;4.40;;;23.70;47.90;;;;;;6136199;22;114900;-79
2023/07/02 07:14:20;;;;;;;7.43;5.38;;;23.60;46.90;;;;;;6113223;23;114640;-79
2023/07/02 07:16:47;;;;;;;7.00;5.20;;;23.60;47.60;;;;;;6114371;22;114186;-78
2023/07/02 07:19:14;;;;;;;9.68;7.55;;;23.50;47.20;;;;;;6113926;23;114304;-78
2023/07/02 07:21:42;;;;;;;6.63;4.53;;;23.50;48.60;;;;;;6110918;23;117192;-79
2023/07/02 07:24:13;;;;;;;9.25;7.07;;;23.60;47.00;;;;;;6113314;22;115964;-79
2023/07/02 07:26:40;;;;;;;5.55;4.18;;;23.60;49.00;;;;;;6113851;23;114155;-78
2023/07/02 07:29:07;;;;;;;6.80;4.53;;;23.60;46.80;;;;;;6114386;22;114444;-77
2023/07/02 07:31:34;;;;;;;6.53;4.35;;;23.50;47.50;;;;;;6112521;23;114859;-77
2023/07/02 07:34:01;;;;;;;8.30;6.20;;;23.50;46.70;;;;;;6110906;23;114603;-78
2023/07/02 07:36:29;;;;;;;7.05;4.60;;;23.50;48.30;;;;;;6114432;23;114161;-78
2023/07/02 07:38:56;;;;;;;8.27;5.78;;;23.50;47.30;;;;;;6113964;23;114131;-77
2023/07/02 07:41:26;;;;;;;8.32;5.30;;;23.50;48.10;;;;;;6112439;23;116145;-77
2023/07/02 07:43:53;;;;;;;8.23;4.45;;;23.40;48.20;;;;;;6112371;23;116294;-79
2023/07/02 07:46:20;;;;;;;7.68;6.22;;;23.40;47.80;;;;;;6113620;23;114034;-79
2023/07/02 07:48:51;;;;;;;6.72;5.50;;;23.30;49.50;;;;;;6114115;23;114373;-78
2023/07/02 07:51:18;;;;;;;6.85;5.28;;;23.30;49.10;;;;;;6112424;23;114877;-78
2023/07/02 07:53:46;;;;;;;8.15;6.50;;;23.30;49.40;;;;;;6112562;23;114533;-79
2023/07/02 07:56:13;;;;;;;7.13;5.95;;;23.20;50.30;;;;;;6112992;23;114145;-80
2023/07/02 07:58:40;;;;;;;7.45;4.93;;;23.30;50.10;;;;;;6113294;23;114262;-78
2023/07/02 08:01:07;;;;;;;7.35;4.88;;;23.30;49.80;;;;;;6111743;23;114826;-78
2023/07/02 08:03:37;;;;;;;6.50;5.05;;;23.40;49.70;;;;;;6112285;23;115120;-78
2023/07/02 08:06:05;;;;;;;6.97;5.10;;;23.40;49.60;;;;;;6113495;23;114240;-79
2023/07/02 08:08:32;;;;;;;7.25;5.82;;;23.40;50.00;;;;;;6113627;23;114336;-79
2023/07/02 08:10:59;;;;;;;7.63;5.88;;;23.40;50.20;;;;;;6110915;23;114931;-78
2023/07/02 08:13:26;;;;;;;6.60;4.80;;;23.30;50.50;;;;;;6112613;23;114552;-78
2023/07/02 08:15:54;;;;;;;6.53;4.30;;;23.40;50.10;;;;;;6112008;23;114161;-78
2023/07/02 08:18:21;;;;;;;5.85;4.85;;;23.30;50.30;;;;;;6113331;23;114086;-78
2023/07/02 08:20:48;;;;;;;6.97;4.82;;;23.30;50.70;;;;;;6111651;23;115435;-78
2023/07/02 08:23:17;;;;;;;6.32;5.05;;;23.40;50.70;;;;;;6111611;22;115579;-78
2023/07/02 08:25:44;;;;;;;6.30;4.40;;;23.60;50.50;;;;;;6111192;23;114104;-77
2023/07/02 08:28:11;;;;;;;5.97;4.25;;;23.70;50.30;;;;;;6113595;23;114229;-79
2023/07/02 08:30:38;;;;;;;10.18;6.38;;;23.90;50.00;;;;;;6110679;23;114865;-78
2023/07/02 08:33:06;;;;;;;5.82;3.78;;;24.10;49.50;;;;;;6112471;23;114714;-78
2023/07/02 08:35:33;;;;;;;5.57;3.60;;;24.20;49.60;;;;;;6112708;23;114236;-78
2023/07/02 08:38:01;;;;;;;5.25;4.15;;;24.30;48.50;;;;;;6114139;23;114185;-79
2023/07/02 08:40:28;;;;;;;6.50;4.22;;;24.30;47.90;;;;;;6135578;22;116207;-77
2023/07/02 08:42:55;;;;;;;6.90;4.63;;;24.10;48.00;;;;;;6111927;23;114686;-78
2023/07/02 08:45:25;;;;;;;6.28;4.28;;;24.10;48.30;;;;;;6112656;23;114169;-78
2023/07/02 08:47:56;;;;;;;5.82;4.53;;;24.10;48.60;;;;;;6112399;23;113982;-79
2023/07/02 08:50:25;;;;;;;5.07;3.58;;;24.10;48.50;;;;;;6088098;23;114843;-77
2023/07/02 08:52:53;;;;;;;6.82;3.80;;;24.10;48.40;;;;;;6113117;23;116633;-78
2023/07/02 08:55:22;;;;;;;5.45;3.50;;;24.20;48.60;;;;;;6114175;23;114403;-78
2023/07/02 08:57:52;;;;;;;4.65;3.92;;;24.20;48.30;;;;;;6113463;23;114064;-78
2023/07/02 09:00:19;;;;;;;5.55;3.80;;;24.20;47.90;;;;;;6110803;23;118036;-78
2023/07/02 09:02:46;;;;;;;6.97;3.88;;;24.20;48.00;;;;;;6112797;22;114958;-79
2023/07/02 09:05:14;;;;;;;4.82;3.67;;;24.30;48.00;;;;;;6111927;23;114274;-78
2023/07/02 09:07:48;;;;;;;5.88;4.03;;;24.20;47.90;;;;;;6113263;23;114210;-79
2023/07/02 09:10:30;;;;;;;6.00;4.20;;;24.30;47.80;;;;;;6111431;23;114928;-79
2023/07/02 09:13:04;;;;;;;8.30;4.78;;;24.30;47.90;;;;;;6114863;23;114815;-79
2023/07/02 09:15:39;;;;;;;5.97;4.30;;;24.30;48.40;;;;;;6114548;23;114039;-79
2023/07/02 09:18:23;;;;;;;5.35;3.72;;;24.30;48.30;;;;;;6114728;22;114317;-78
2023/07/02 09:20:52;;;;;;;4.63;2.97;;;24.40;48.20;;;;;;6113550;23;114840;-78
2023/07/02 09:23:19;;;;;;;4.72;3.20;;;24.50;47.10;;;;;;6087286;23;115137;-78
2023/07/02 09:25:46;;;;;;;4.60;3.38;;;24.70;47.10;;;;;;6114659;23;114034;-78
2023/07/02 09:28:21;;;;;;;5.47;3.60;;;24.80;46.60;;;;;;6114804;23;114281;-78
2023/07/02 09:30:56;;;;;;;5.43;3.53;;;24.80;47.10;;;;;;6112264;23;115237;-79
2023/07/02 09:33:25;;;;;;;5.18;3.30;;;24.80;47.00;;;;;;6113026;23;114582;-78
2023/07/02 09:35:56;;;;;;;4.28;3.00;;;24.80;47.20;;;;;;6112362;23;114298;-78
2023/07/02 09:38:23;;;;;;;4.78;3.13;;;24.80;46.90;;;;;;6137715;22;115029;-78
2023/07/02 09:40:52;;;;;;;5.20;3.00;;;24.80;46.90;;;;;;6111913;23;115484;-78
2023/07/02 09:43:19;;;;;;;5.60;3.80;;;25.00;46.80;;;;;;6111367;23;116627;-79
2023/07/02 09:45:47;;;;;;;5.43;3.35;;;25.00;46.60;;;;;;6111916;23;114165;-78
2023/07/02 09:48:16;;;;;;;4.03;2.88;;;25.20;46.40;;;;;;6114445;23;114031;-79
2023/07/02 09:50:48;;;;;;;4.45;3.20;;;25.20;46.20;;;;;;6112976;23;116314;-78
2023/07/02 09:53:16;;;;;;;6.85;3.58;;;25.20;46.30;;;;;;6111924;23;115147;-79
2023/07/02 09:55:43;;;;;;;4.60;2.85;;;25.20;46.70;;;;;;6112607;23;114173;-79
2023/07/02 09:58:14;;;;;;;3.53;2.55;;;25.20;46.30;;;;;;6087170;23;114341;-79
2023/07/02 10:00:41;;;;;;;4.18;2.70;;;25.20;46.20;;;;;;6112632;22;114811;-78
2023/07/02 10:03:09;;;;;;;4.18;2.38;;;25.10;46.40;;;;;;6111574;23;114698;-78
2023/07/02 10:05:36;;;;;;;5.05;2.53;;;25.10;46.40;;;;;;6112850;23;114340;-78
2023/07/02 10:08:16;;;;;;;3.50;2.60;;;25.20;46.50;;;;;;6114119;23;114377;-79
2023/07/02 10:10:43;;;;;;;3.53;2.33;;;25.30;46.50;;;;;;6112953;23;114925;-79
2023/07/02 10:13:11;;;;;;;4.53;2.40;;;25.30;45.90;;;;;;6086981;23;116167;-79
2023/07/02 10:15:39;;;;;;;5.25;2.95;;;25.30;46.10;;;;;;6114231;23;114149;-78
2023/07/02 10:18:07;;;;;;;3.85;2.47;;;25.30;46.80;;;;;;6113010;23;114083;-78
2023/07/02 10:20:38;;;;;;;3.70;2.28;;;25.40;45.70;;;;;;6111664;23;114858;-78
2023/07/02 10:23:07;;;;;;;3.60;2.38;;;25.50;45.70;;;;;;6112713;23;114590;-78
2023/07/02 10:25:37;;;;;;;2.97;2.00;;;25.50;45.60;;;;;;6112275;23;114047;-78
2023/07/02 10:28:19;;;;;;;3.65;2.13;;;25.60;45.70;;;;;;6112874;23;114179;-79
2023/07/02 10:30:46;;;;;;;3.92;2.17;;;25.60;45.50;;;;;;6112051;23;114856;-79
2023/07/02 10:33:15;;;;;;;3.45;2.20;;;25.60;45.40;;;;;;6111192;23;114713;-79
2023/07/02 10:35:44;;;;;;;3.60;2.00;;;25.80;46.00;;;;;;6114573;23;114101;-79
2023/07/02 10:38:20;;;;;;;2.85;1.90;;;25.80;45.80;;;;;;6114311;22;114264;-79
2023/07/02 10:40:53;;;;;;;2.72;1.80;;;25.80;45.00;;;;;;6111519;23;114993;-79
2023/07/02 10:43:28;;;;;;;4.20;1.83;;;25.90;44.40;;;;;;6111705;23;114760;-79
2023/07/02 10:45:59;;;;;;;3.00;1.80;;;25.90;44.80;;;;;;6114358;22;114290;-78
2023/07/02 10:48:27;;;;;;;3.65;1.60;;;26.00;45.10;;;;;;6114431;23;114106;-78
2023/07/02 10:50:55;;;;;;;3.17;1.40;;;25.90;44.80;;;;;;6136150;22;114989;-78
2023/07/02 10:53:22;;;;;;;3.20;1.67;;;25.90;44.50;;;;;;6136672;22;115113;-79
2023/07/02 10:56:07;;;;;;;3.70;1.60;;;25.80;44.30;;;;;;6114207;23;114074;-78
2023/07/02 10:58:42;;;;;;;3.25;1.90;;;25.80;45.00;;;;;;6113906;23;114181;-79
2023/07/02 11:01:09;;;;;;;3.90;1.85;;;25.80;44.80;;;;;;6111673;23;115652;-79
2023/07/02 11:03:38;;;;;;;4.05;1.88;;;25.80;44.60;;;;;;6112841;22;114641;-79
2023/07/02 11:06:05;;;;;;;2.90;1.60;;;25.80;45.60;;;;;;6113849;23;114423;-79
2023/07/02 11:08:36;;;;;;;2.55;1.60;;;25.80;44.50;;;;;;6113188;23;114183;-79
2023/07/02 11:11:08;;;;;;;2.83;1.80;;;25.80;44.30;;;;;;6110024;23;117133;-77
2023/07/02 11:13:46;;;;;;;3.10;2.05;;;25.90;44.30;;;;;;6112717;23;115892;-80
2023/07/02 11:16:28;;;;;;;4.05;2.00;;;25.80;44.70;;;;;;6089266;23;114383;-78
2023/07/02 11:19:08;;;;;;;3.70;2.10;;;25.80;45.20;;;;;;6113631;23;114314;-78
2023/07/02 11:21:36;;;;;;;2.80;1.58;;;25.80;44.50;;;;;;6113165;22;114908;-79
2023/07/02 11:24:04;;;;;;;2.50;1.55;;;25.80;44.40;;;;;;6112760;22;116051;-79
2023/07/02 11:26:39;;;;;;;3.25;1.95;;;25.80;45.00;;;;;;6114282;23;114176;-79
2023/07/02 11:29:18;;;;;;;4.28;1.98;;;26.00;44.10;;;;;;6112414;23;114170;-78
2023/07/02 11:31:45;;;;;;;4.47;1.98;;;26.00;44.10;;;;;;6087236;23;115826;-79
2023/07/02 11:34:16;;;;;;;3.25;2.00;;;26.00;44.40;;;;;;6136359;22;114618;-79
2023/07/02 11:36:45;;;;;;;4.07;2.15;;;26.00;45.00;;;;;;6112471;23;114317;-79
2023/07/02 11:39:12;;;;;;;2.83;1.92;;;26.00;44.30;;;;;;6113985;23;114290;-79
2023/07/02 11:41:44;;;;;;;3.17;1.90;;;26.10;44.00;;;;;;6112220;23;114941;-79
2023/07/02 11:44:12;;;;;;;4.28;1.95;;;26.10;43.20;;;;;;6113499;23;114298;-78
2023/07/02 11:46:39;;;;;;;3.42;2.13;;;26.10;43.20;;;;;;6114530;23;114119;-77
2023/07/02 11:49:09;;;;;;;4.68;2.05;;;26.10;43.20;;;;;;6114908;23;114075;-78
2023/07/02 11:51:37;;;;;;;4.70;2.47;;;26.00;43.10;;;;;;6113426;23;115398;-79
2023/07/02 11:54:05;;;;;;;5.50;3.50;;;26.10;43.60;;;;;;6087104;23;114867;-79
2023/07/02 11:56:32;;;;;;;4.68;2.20;;;26.20;43.30;;;;;;6115044;23;114123;-79
2023/07/02 11:58:59;;;;;;;4.68;2.00;;;26.20;43.10;;;;;;6115299;23;114133;-78
2023/07/02 12:01:30;;;;;;;4.72;2.40;;;26.20;42.70;;;;;;6114105;22;114822;-78
2023/07/02 12:03:58;;;;;;;3.78;1.85;;;26.20;43.10;;;;;;6114013;23;115538;-78
2023/07/02 12:06:25;;;;;;;2.92;1.98;;;26.30;43.10;;;;;;6112372;23;114147;-78
2023/07/02 12:08:52;;;;;;;4.28;1.90;;;26.30;43.10;;;;;;6114183;23;114240;-78
2023/07/02 12:11:19;;;;;;;3.97;2.05;;;26.30;42.60;;;;;;6112874;23;114904;-79
2023/07/02 12:13:46;;;;;;;3.72;2.03;;;26.30;43.00;;;;;;6112767;22;114662;-78
2023/07/02 12:16:14;;;;;;;4.13;2.05;;;26.20;42.60;;;;;;6113287;23;114415;-78
2023/07/02 12:18:41;;;;;;;3.50;2.25;;;26.20;43.00;;;;;;6112728;23;114209;-79
2023/07/02 12:21:09;;;;;;;2.92;1.70;;;26.20;42.80;;;;;;6111903;22;115040;-79
2023/07/02 12:23:36;;;;;;;3.75;1.70;;;26.20;43.20;;;;;;6113101;23;114659;-79
2023/07/02 12:26:04;;;;;;;2.83;1.70;;;26.30;42.60;;;;;;6112629;23;114347;-78
2023/07/02 12:28:31;;;;;;;5.10;2.00;;;26.30;42.80;;;;;;6114195;23;114286;-78
2023/07/02 12:30:58;;;;;;;2.90;1.73;;;26.40;42.60;;;;;;6111181;23;115174;-78
2023/07/02 12:33:26;;;;;;;2.88;2.05;;;26.40;42.30;;;;;;6135610;22;114627;-78